sensor_id;sensor_type;location;lat;lon;timestamp;temperature;humidity
9965;DHT22;5023;53.554;9.964;2023-02-25T00:04:14;4.50;99.90
9965;DHT22;5023;53.554;9.964;2023-02-25T00:09:16;4.50;99.90
9965;DHT22;5023;53.554;9.964;2023-02-25T00:14:17;4.50;99.90
9965;DHT22;5023;53.554;9.964;2023-02-25T00:19:21;4.40;99.90
9965;DHT22;5023;53.554;9.964;2023-02-25T00:24:23;4.40;99.90
9965;DHT22;5023;53.554;9.964;2023-02-25T00:29:25;4.40;99.90
9965;DHT22;5023;53.554;9.964;2023-02-25T00:34:28;4.40;99.90
9965;DHT22;5023;53.554;9.964;2023-02-25T00:39:30;4.50;99.90
9965;DHT22;5023;53.554;9.964;2023-02-25T00:44:43;4.40;99.90
9965;DHT22;5023;53.554;9.964;2023-02-25T00:49:47;4.80;99.90
9965;DHT22;5023;53.554;9.964;2023-02-25T00:54:49;4.40;99.90
9965;DHT22;5023;53.554;9.964;2023-02-25T00:59:51;4.50;99.90
9965;DHT22;5023;53.554;9.964;2023-02-25T01:04:55;4.50;99.90
9965;DHT22;5023;53.554;9.964;2023-02-25T01:09:57;4.50;99.90
9965;DHT22;5023;53.554;9.964;2023-02-25T01:14:59;4.50;99.90
9965;DHT22;5023;53.554;9.964;2023-02-25T01:20:04;4.40;99.90
9965;DHT22;5023;53.554;9.964;2023-02-25T01:25:12;4.30;99.90
9965;DHT22;5023;53.554;9.964;2023-02-25T01:30:16;4.30;99.90
9965;DHT22;5023;53.554;9.964;2023-02-25T01:35:19;4.30;99.90
9965;DHT22;5023;53.554;9.964;2023-02-25T01:40:21;4.30;99.90
9965;DHT22;5023;53.554;9.964;2023-02-25T01:45:28;4.30;99.90
9965;DHT22;5023;53.554;9.964;2023-02-25T01:50:36;4.30;99.90
9965;DHT22;5023;53.554;9.964;2023-02-25T01:55:41;4.30;99.90
9965;DHT22;5023;53.554;9.964;2023-02-25T02:00:44;4.30;99.90
9965;DHT22;5023;53.554;9.964;2023-02-25T02:05:58;4.30;99.90
9965;DHT22;5023;53.554;9.964;2023-02-25T02:11:01;4.30;99.90
9965;DHT22;5023;53.554;9.964;2023-02-25T02:16:13;4.30;99.90
9965;DHT22;5023;53.554;9.964;2023-02-25T02:21:34;4.20;99.90
9965;DHT22;5023;53.554;9.964;2023-02-25T02:26:50;4.30;99.90
9965;DHT22;5023;53.554;9.964;2023-02-25T02:32:05;4.30;99.90
9965;DHT22;5023;53.554;9.964;2023-02-25T02:37:19;4.20;99.90
9965;DHT22;5023;53.554;9.964;2023-02-25T02:42:30;4.10;99.90
9965;DHT22;5023;53.554;9.964;2023-02-25T02:47:36;4.10;99.90
9965;DHT22;5023;53.554;9.964;2023-02-25T02:52:41;4.10;99.90
9965;DHT22;5023;53.554;9.964;2023-02-25T02:57:44;4.20;99.90
9965;DHT22;5023;53.554;9.964;2023-02-25T03:02:51;4.10;99.90
9965;DHT22;5023;53.554;9.964;2023-02-25T03:08:00;4.00;99.90
9965;DHT22;5023;53.554;9.964;2023-02-25T03:13:07;4.00;99.90
9965;DHT22;5023;53.554;9.964;2023-02-25T03:18:17;3.90;99.90
9965;DHT22;5023;53.554;9.964;2023-02-25T03:23:26;3.90;99.90
9965;DHT22;5023;53.554;9.964;2023-02-25T03:28:30;3.90;99.90
9965;DHT22;5023;53.554;9.964;2023-02-25T03:33:39;3.60;99.90
9965;DHT22;5023;53.554;9.964;2023-02-25T03:38:51;3.60;99.90
9965;DHT22;5023;53.554;9.964;2023-02-25T03:43:55;3.50;99.90
9965;DHT22;5023;53.554;9.964;2023-02-25T03:49:01;3.50;99.90
9965;DHT22;5023;53.554;9.964;2023-02-25T03:54:04;3.50;99.90
9965;DHT22;5023;53.554;9.964;2023-02-25T03:59:08;3.40;99.90
9965;DHT22;5023;53.554;9.964;2023-02-25T04:04:12;3.40;99.90
9965;DHT22;5023;53.554;9.964;2023-02-25T04:09:14;3.40;99.90
9965;DHT22;5023;53.554;9.964;2023-02-25T04:14:16;3.40;99.90
9965;DHT22;5023;53.554;9.964;2023-02-25T04:19:19;3.40;99.90
9965;DHT22;5023;53.554;9.964;2023-02-25T04:24:21;3.40;99.90
9965;DHT22;5023;53.554;9.964;2023-02-25T04:29:23;3.50;99.90
9965;DHT22;5023;53.554;9.964;2023-02-25T04:34:27;3.50;99.90
9965;DHT22;5023;53.554;9.964;2023-02-25T04:39:29;3.40;99.90
9965;DHT22;5023;53.554;9.964;2023-02-25T04:44:31;3.50;99.90
9965;DHT22;5023;53.554;9.964;2023-02-25T04:49:34;3.60;99.90
9965;DHT22;5023;53.554;9.964;2023-02-25T04:54:44;3.50;99.90
9965;DHT22;5023;53.554;9.964;2023-02-25T04:59:46;3.60;99.90
9965;DHT22;5023;53.554;9.964;2023-02-25T05:04:49;3.50;99.90
9965;DHT22;5023;53.554;9.964;2023-02-25T05:09:52;3.50;99.90
9965;DHT22;5023;53.554;9.964;2023-02-25T05:14:53;3.50;99.90
9965;DHT22;5023;53.554;9.964;2023-02-25T05:19:58;3.50;99.90
9965;DHT22;5023;53.554;9.964;2023-02-25T05:25:00;3.50;99.90
9965;DHT22;5023;53.554;9.964;2023-02-25T05:30:04;3.50;99.90
9965;DHT22;5023;53.554;9.964;2023-02-25T05:35:08;3.50;99.90
9965;DHT22;5023;53.554;9.964;2023-02-25T05:40:11;3.40;99.90
9965;DHT22;5023;53.554;9.964;2023-02-25T05:45:15;3.30;99.90
9965;DHT22;5023;53.554;9.964;2023-02-25T05:50:18;3.40;99.90
9965;DHT22;5023;53.554;9.964;2023-02-25T05:55:22;3.40;99.90
9965;DHT22;5023;53.554;9.964;2023-02-25T06:00:24;3.50;99.90
9965;DHT22;5023;53.554;9.964;2023-02-25T06:05:27;3.40;99.90
9965;DHT22;5023;53.554;9.964;2023-02-25T06:10:30;3.40;99.90
9965;DHT22;5023;53.554;9.964;2023-02-25T06:15:39;3.40;99.90
9965;DHT22;5023;53.554;9.964;2023-02-25T06:20:43;3.40;99.90
9965;DHT22;5023;53.554;9.964;2023-02-25T06:25:45;3.40;99.90
9965;DHT22;5023;53.554;9.964;2023-02-25T06:30:47;3.40;99.90
9965;DHT22;5023;53.554;9.964;2023-02-25T06:35:52;3.40;99.90
9965;DHT22;5023;53.554;9.964;2023-02-25T06:40:54;3.40;99.90
9965;DHT22;5023;53.554;9.964;2023-02-25T06:45:56;3.30;99.90
9965;DHT22;5023;53.554;9.964;2023-02-25T06:50:59;3.20;99.90
9965;DHT22;5023;53.554;9.964;2023-02-25T06:56:02;3.20;99.90
9965;DHT22;5023;53.554;9.964;2023-02-25T07:01:05;3.20;99.90
9965;DHT22;5023;53.554;9.964;2023-02-25T07:06:09;3.20;99.90
9965;DHT22;5023;53.554;9.964;2023-02-25T07:11:13;3.20;99.90
9965;DHT22;5023;53.554;9.964;2023-02-25T07:16:16;3.10;99.90
9965;DHT22;5023;53.554;9.964;2023-02-25T07:21:20;3.00;99.90
9965;DHT22;5023;53.554;9.964;2023-02-25T07:26:23;2.90;99.90
9965;DHT22;5023;53.554;9.964;2023-02-25T07:31:27;2.90;99.90
9965;DHT22;5023;53.554;9.964;2023-02-25T07:36:31;2.90;99.90
9965;DHT22;5023;53.554;9.964;2023-02-25T07:41:35;2.90;99.90
9965;DHT22;5023;53.554;9.964;2023-02-25T07:46:37;2.90;99.90
9965;DHT22;5023;53.554;9.964;2023-02-25T07:51:42;3.00;99.90
9965;DHT22;5023;53.554;9.964;2023-02-25T07:56:46;3.10;99.90
9965;DHT22;5023;53.554;9.964;2023-02-25T08:01:50;3.10;99.90
9965;DHT22;5023;53.554;9.964;2023-02-25T08:06:54;3.10;99.90
9965;DHT22;5023;53.554;9.964;2023-02-25T08:11:56;3.20;99.90
9965;DHT22;5023;53.554;9.964;2023-02-25T08:16:58;3.20;99.90
9965;DHT22;5023;53.554;9.964;2023-02-25T08:22:03;3.20;99.90
9965;DHT22;5023;53.554;9.964;2023-02-25T08:27:05;3.30;99.90
9965;DHT22;5023;53.554;9.964;2023-02-25T08:32:08;3.30;99.90
9965;DHT22;5023;53.554;9.964;2023-02-25T08:37:11;3.30;99.90
9965;DHT22;5023;53.554;9.964;2023-02-25T08:42:13;3.30;99.90
9965;DHT22;5023;53.554;9.964;2023-02-25T08:47:18;3.00;99.90
9965;DHT22;5023;53.554;9.964;2023-02-25T08:52:22;3.00;99.90
9965;DHT22;5023;53.554;9.964;2023-02-25T08:57:24;3.00;99.90
9965;DHT22;5023;53.554;9.964;2023-02-25T09:02:26;3.00;99.90
9965;DHT22;5023;53.554;9.964;2023-02-25T09:07:29;2.90;99.90
9965;DHT22;5023;53.554;9.964;2023-02-25T09:12:32;2.90;99.90
9965;DHT22;5023;53.554;9.964;2023-02-25T09:17:35;2.90;99.90
9965;DHT22;5023;53.554;9.964;2023-02-25T09:22:40;3.00;99.90
9965;DHT22;5023;53.554;9.964;2023-02-25T09:27:42;3.20;99.90
9965;DHT22;5023;53.554;9.964;2023-02-25T09:32:44;3.10;99.90
9965;DHT22;5023;53.554;9.964;2023-02-25T09:37:48;3.30;99.90
9965;DHT22;5023;53.554;9.964;2023-02-25T09:42:59;3.20;99.90
9965;DHT22;5023;53.554;9.964;2023-02-25T09:48:09;3.20;99.90
9965;DHT22;5023;53.554;9.964;2023-02-25T09:53:18;3.20;99.90
9965;DHT22;5023;53.554;9.964;2023-02-25T09:58:25;3.20;99.90
9965;DHT22;5023;53.554;9.964;2023-02-25T10:03:47;3.50;99.90
9965;DHT22;5023;53.554;9.964;2023-02-25T10:08:56;3.50;99.90
9965;DHT22;5023;53.554;9.964;2023-02-25T10:14:10;3.50;99.90
9965;DHT22;5023;53.554;9.964;2023-02-25T10:19:26;3.60;99.90
9965;DHT22;5023;53.554;9.964;2023-02-25T10:24:39;3.80;99.90
9965;DHT22;5023;53.554;9.964;2023-02-25T10:29:46;3.70;99.90
9965;DHT22;5023;53.554;9.964;2023-02-25T10:34:50;3.50;99.90
9965;DHT22;5023;53.554;9.964;2023-02-25T10:39:56;3.50;99.90
9965;DHT22;5023;53.554;9.964;2023-02-25T10:45:04;3.40;99.90
9965;DHT22;5023;53.554;9.964;2023-02-25T10:50:18;3.40;99.90
9965;DHT22;5023;53.554;9.964;2023-02-25T10:55:39;3.50;99.90
9965;DHT22;5023;53.554;9.964;2023-02-25T11:00:57;3.50;99.90
9965;DHT22;5023;53.554;9.964;2023-02-25T11:06:12;3.60;99.90
9965;DHT22;5023;53.554;9.964;2023-02-25T11:11:18;3.60;99.90
9965;DHT22;5023;53.554;9.964;2023-02-25T11:16:20;3.80;99.90
9965;DHT22;5023;53.554;9.964;2023-02-25T11:21:32;3.80;99.90
9965;DHT22;5023;53.554;9.964;2023-02-25T11:26:36;3.80;99.90
9965;DHT22;5023;53.554;9.964;2023-02-25T11:31:40;3.90;99.90
9965;DHT22;5023;53.554;9.964;2023-02-25T11:36:43;4.00;99.90
9965;DHT22;5023;53.554;9.964;2023-02-25T11:41:48;4.00;99.90
9965;DHT22;5023;53.554;9.964;2023-02-25T11:46:59;4.10;99.90
9965;DHT22;5023;53.554;9.964;2023-02-25T11:52:08;4.10;99.90
9965;DHT22;5023;53.554;9.964;2023-02-25T11:57:20;4.30;99.90
9965;DHT22;5023;53.554;9.964;2023-02-25T12:02:29;4.30;99.90
9965;DHT22;5023;53.554;9.964;2023-02-25T12:07:51;4.30;99.90
9965;DHT22;5023;53.554;9.964;2023-02-25T12:18:57;4.60;98.90
9965;DHT22;5023;53.554;9.964;2023-02-25T12:24:27;4.50;99.80
9965;DHT22;5023;53.554;9.964;2023-02-25T12:29:52;4.80;99.90
9965;DHT22;5023;53.554;9.964;2023-02-25T12:35:26;4.70;99.90
9965;DHT22;5023;53.554;9.964;2023-02-25T12:40:55;4.70;99.90
9965;DHT22;5023;53.554;9.964;2023-02-25T12:46:20;4.80;99.90
9965;DHT22;5023;53.554;9.964;2023-02-25T12:51:51;5.00;97.00
9965;DHT22;5023;53.554;9.964;2023-02-25T12:57:25;5.20;95.40
9965;DHT22;5023;53.554;9.964;2023-02-25T13:02:52;5.00;91.20
9965;DHT22;5023;53.554;9.964;2023-02-25T13:08:22;5.00;90.30
9965;DHT22;5023;53.554;9.964;2023-02-25T13:13:52;5.10;88.70
9965;DHT22;5023;53.554;9.964;2023-02-25T13:19:14;5.00;85.00
9965;DHT22;5023;53.554;9.964;2023-02-25T13:24:32;5.00;85.10
9965;DHT22;5023;53.554;9.964;2023-02-25T13:29:50;5.00;82.10
9965;DHT22;5023;53.554;9.964;2023-02-25T13:35:11;5.20;84.20
9965;DHT22;5023;53.554;9.964;2023-02-25T13:40:24;5.40;84.80
9965;DHT22;5023;53.554;9.964;2023-02-25T13:45:45;5.20;78.80
9965;DHT22;5023;53.554;9.964;2023-02-25T13:51:00;5.00;78.80
9965;DHT22;5023;53.554;9.964;2023-02-25T13:56:26;5.00;80.70
9965;DHT22;5023;53.554;9.964;2023-02-25T14:01:38;5.10;82.70
9965;DHT22;5023;53.554;9.964;2023-02-25T14:07:04;5.20;84.10
9965;DHT22;5023;53.554;9.964;2023-02-25T14:12:16;5.10;81.40
9965;DHT22;5023;53.554;9.964;2023-02-25T14:17:42;5.00;79.90
9965;DHT22;5023;53.554;9.964;2023-02-25T14:22:51;5.00;79.30
9965;DHT22;5023;53.554;9.964;2023-02-25T14:28:04;5.10;80.10
9965;DHT22;5023;53.554;9.964;2023-02-25T14:33:33;5.20;80.00
9965;DHT22;5023;53.554;9.964;2023-02-25T14:39:02;5.20;78.20
9965;DHT22;5023;53.554;9.964;2023-02-25T14:44:11;5.20;75.70
9965;DHT22;5023;53.554;9.964;2023-02-25T14:49:20;5.00;77.30
9965;DHT22;5023;53.554;9.964;2023-02-25T14:54:58;4.90;77.70
9965;DHT22;5023;53.554;9.964;2023-02-25T15:00:29;4.80;77.40
9965;DHT22;5023;53.554;9.964;2023-02-25T15:06:01;4.80;76.90
9965;DHT22;5023;53.554;9.964;2023-02-25T15:22:30;4.70;77.90
9965;DHT22;5023;53.554;9.964;2023-02-25T15:27:51;4.70;75.80
9965;DHT22;5023;53.554;9.964;2023-02-25T15:33:14;4.60;82.60
9965;DHT22;5023;53.554;9.964;2023-02-25T15:38:18;3.50;99.90
9965;DHT22;5023;53.554;9.964;2023-02-25T15:43:41;3.20;99.90
9965;DHT22;5023;53.554;9.964;2023-02-25T15:48:47;3.10;99.90
9965;DHT22;5023;53.554;9.964;2023-02-25T15:54:02;3.20;99.90
9965;DHT22;5023;53.554;9.964;2023-02-25T15:59:05;3.20;99.90
9965;DHT22;5023;53.554;9.964;2023-02-25T16:04:43;3.20;99.90
9965;DHT22;5023;53.554;9.964;2023-02-25T16:09:49;3.30;99.90
9965;DHT22;5023;53.554;9.964;2023-02-25T16:14:55;3.30;99.90
9965;DHT22;5023;53.554;9.964;2023-02-25T16:20:06;3.30;99.90
9965;DHT22;5023;53.554;9.964;2023-02-25T16:25:14;3.30;99.90
9965;DHT22;5023;53.554;9.964;2023-02-25T16:30:24;3.20;99.90
9965;DHT22;5023;53.554;9.964;2023-02-25T16:35:32;3.20;99.90
9965;DHT22;5023;53.554;9.964;2023-02-25T16:40:39;3.20;99.90
9965;DHT22;5023;53.554;9.964;2023-02-25T16:45:52;3.20;99.90
9965;DHT22;5023;53.554;9.964;2023-02-25T16:51:06;3.10;99.90
9965;DHT22;5023;53.554;9.964;2023-02-25T16:56:12;3.20;99.90
9965;DHT22;5023;53.554;9.964;2023-02-25T17:01:21;3.10;99.90
9965;DHT22;5023;53.554;9.964;2023-02-25T17:06:26;3.10;99.90
9965;DHT22;5023;53.554;9.964;2023-02-25T17:11:28;3.10;99.90
9965;DHT22;5023;53.554;9.964;2023-02-25T17:16:37;3.10;99.90
9965;DHT22;5023;53.554;9.964;2023-02-25T17:21:50;3.10;99.90
9965;DHT22;5023;53.554;9.964;2023-02-25T17:26:53;3.10;99.90
9965;DHT22;5023;53.554;9.964;2023-02-25T17:31:55;3.00;99.90
9965;DHT22;5023;53.554;9.964;2023-02-25T17:37:02;3.00;99.90
9965;DHT22;5023;53.554;9.964;2023-02-25T17:42:27;3.00;99.90
9965;DHT22;5023;53.554;9.964;2023-02-25T17:47:31;2.90;99.90
9965;DHT22;5023;53.554;9.964;2023-02-25T17:52:37;3.00;99.90
9965;DHT22;5023;53.554;9.964;2023-02-25T17:57:41;2.90;99.90
9965;DHT22;5023;53.554;9.964;2023-02-25T18:02:44;2.90;99.90
9965;DHT22;5023;53.554;9.964;2023-02-25T18:08:06;2.90;99.90
9965;DHT22;5023;53.554;9.964;2023-02-25T18:13:17;2.90;99.90
9965;DHT22;5023;53.554;9.964;2023-02-25T18:18:21;2.80;99.90
9965;DHT22;5023;53.554;9.964;2023-02-25T18:23:25;2.80;99.90
9965;DHT22;5023;53.554;9.964;2023-02-25T18:28:28;2.70;99.90
9965;DHT22;5023;53.554;9.964;2023-02-25T18:33:30;2.70;99.90
9965;DHT22;5023;53.554;9.964;2023-02-25T18:38:34;2.70;99.90
9965;DHT22;5023;53.554;9.964;2023-02-25T18:43:37;2.60;99.90
9965;DHT22;5023;53.554;9.964;2023-02-25T18:48:41;2.60;99.90
9965;DHT22;5023;53.554;9.964;2023-02-25T18:53:45;2.50;99.90
9965;DHT22;5023;53.554;9.964;2023-02-25T18:58:47;2.40;99.90
9965;DHT22;5023;53.554;9.964;2023-02-25T19:03:49;2.40;99.90
9965;DHT22;5023;53.554;9.964;2023-02-25T19:08:56;2.40;99.90
9965;DHT22;5023;53.554;9.964;2023-02-25T19:13:58;2.40;99.90
9965;DHT22;5023;53.554;9.964;2023-02-25T19:19:00;2.40;99.90
9965;DHT22;5023;53.554;9.964;2023-02-25T19:24:04;2.30;99.90
9965;DHT22;5023;53.554;9.964;2023-02-25T19:29:06;2.30;99.90
9965;DHT22;5023;53.554;9.964;2023-02-25T19:34:08;2.20;99.90
9965;DHT22;5023;53.554;9.964;2023-02-25T19:39:12;2.20;99.90
9965;DHT22;5023;53.554;9.964;2023-02-25T19:44:14;2.10;99.90
9965;DHT22;5023;53.554;9.964;2023-02-25T19:49:17;2.10;99.90
9965;DHT22;5023;53.554;9.964;2023-02-25T19:54:21;2.10;99.90
9965;DHT22;5023;53.554;9.964;2023-02-25T19:59:23;2.00;99.90
9965;DHT22;5023;53.554;9.964;2023-02-25T20:04:26;2.00;99.90
9965;DHT22;5023;53.554;9.964;2023-02-25T20:09:31;2.00;99.90
9965;DHT22;5023;53.554;9.964;2023-02-25T20:14:33;2.00;99.90
9965;DHT22;5023;53.554;9.964;2023-02-25T20:19:35;2.00;99.90
9965;DHT22;5023;53.554;9.964;2023-02-25T20:24:39;2.00;99.90
9965;DHT22;5023;53.554;9.964;2023-02-25T20:29:42;1.90;99.90
9965;DHT22;5023;53.554;9.964;2023-02-25T20:34:44;1.80;99.90
9965;DHT22;5023;53.554;9.964;2023-02-25T20:39:50;1.70;99.90
9965;DHT22;5023;53.554;9.964;2023-02-25T20:44:56;1.60;99.90
9965;DHT22;5023;53.554;9.964;2023-02-25T20:49:59;1.40;99.90
9965;DHT22;5023;53.554;9.964;2023-02-25T20:55:03;1.30;99.90
9965;DHT22;5023;53.554;9.964;2023-02-25T21:00:07;1.20;99.90
9965;DHT22;5023;53.554;9.964;2023-02-25T21:05:09;1.20;99.90
9965;DHT22;5023;53.554;9.964;2023-02-25T21:10:13;1.20;99.90
9965;DHT22;5023;53.554;9.964;2023-02-25T21:15:15;1.00;99.90
9965;DHT22;5023;53.554;9.964;2023-02-25T21:20:17;1.10;99.90
9965;DHT22;5023;53.554;9.964;2023-02-25T21:25:21;1.50;99.90
9965;DHT22;5023;53.554;9.964;2023-02-25T21:30:23;1.10;99.90
9965;DHT22;5023;53.554;9.964;2023-02-25T21:35:26;0.80;99.90
9965;DHT22;5023;53.554;9.964;2023-02-25T21:40:29;0.70;99.90
9965;DHT22;5023;53.554;9.964;2023-02-25T21:45:32;0.70;99.90
9965;DHT22;5023;53.554;9.964;2023-02-25T21:50:43;0.60;99.90
9965;DHT22;5023;53.554;9.964;2023-02-25T21:55:47;0.70;99.90
9965;DHT22;5023;53.554;9.964;2023-02-25T22:00:49;0.60;99.90
9965;DHT22;5023;53.554;9.964;2023-02-25T22:05:52;0.80;99.90
9965;DHT22;5023;53.554;9.964;2023-02-25T22:10:55;0.60;99.90
9965;DHT22;5023;53.554;9.964;2023-02-25T22:16:00;0.60;99.90
9965;DHT22;5023;53.554;9.964;2023-02-25T22:21:05;0.60;99.90
9965;DHT22;5023;53.554;9.964;2023-02-25T22:26:13;0.60;99.90
9965;DHT22;5023;53.554;9.964;2023-02-25T22:31:16;0.50;99.90
9965;DHT22;5023;53.554;9.964;2023-02-25T22:36:18;0.60;99.90
9965;DHT22;5023;53.554;9.964;2023-02-25T22:41:24;0.50;99.90
9965;DHT22;5023;53.554;9.964;2023-02-25T22:46:28;0.50;99.90
9965;DHT22;5023;53.554;9.964;2023-02-25T22:51:32;0.50;99.90
9965;DHT22;5023;53.554;9.964;2023-02-25T22:56:35;0.60;99.90
9965;DHT22;5023;53.554;9.964;2023-02-25T23:01:38;0.60;99.90
9965;DHT22;5023;53.554;9.964;2023-02-25T23:06:41;0.60;99.90
9965;DHT22;5023;53.554;9.964;2023-02-25T23:11:44;0.60;99.90
9965;DHT22;5023;53.554;9.964;2023-02-25T23:16:46;0.50;99.90
9965;DHT22;5023;53.554;9.964;2023-02-25T23:21:48;0.60;99.90
9965;DHT22;5023;53.554;9.964;2023-02-25T23:26:51;0.60;99.90
9965;DHT22;5023;53.554;9.964;2023-02-25T23:31:54;0.50;99.90
9965;DHT22;5023;53.554;9.964;2023-02-25T23:36:59;0.50;99.90
9965;DHT22;5023;53.554;9.964;2023-02-25T23:42:03;0.40;99.90
9965;DHT22;5023;53.554;9.964;2023-02-25T23:47:05;0.50;99.90
9965;DHT22;5023;53.554;9.964;2023-02-25T23:52:07;0.40;99.90
9965;DHT22;5023;53.554;9.964;2023-02-25T23:57:10;0.40;99.90
